West Miltmore, Illinois
Current Conditions -  °F | °C
As of 3:55 PM on Wednesday 28 Jan 2015 (Local Time) from KUGN Reporting Station
Clear Clear  
Wind Chill: 20°   Ceiling: Unl
Heat Index: 31°   Visibility: 8mi
Dew Point: 22°   Wind: 16mph
Humidity: 69%   Direction: 140°SE
Pressure: 30.06"   Gusts: 23mph
Location:  42.4132°N, 88.0615°W
Report Text: KUGN 282155Z 14014G20KT 8SM CLR M01/M06 A3006 RMK AO2 SLP194 T10061056
Loading
Personal Weather Stations






























Interactive Weather Map New forecast layout! Learn more

10-Day Weather Forecast

Advertisements
Track Severe Weather on mobile